CheckWX is a tool to help pilots better visualize weather data.  It is not intended as a substitute for an official pre-flight weather briefing.

05:32:30 UTC

KSYR TAF
Syracuse Hancock International Airport Airport
Syracuse, New York, USA
KSYR 100542Z 1006/1106 00000KT P6SM FEW220 FM101700 13008KT P6SM SCT060 FM110300 11005KT 6SM -SHRA OVC025

Jul-10@
06:00 UTC

Jul-10 @ 06:00 UTC

Jul-10@
17:00 UTC

Jul-10 @ 17:00 UTC

TAF KSYR 100542Z 1006/1106 00000KT P6SM FEW220

Expired

Cloud Levels
  • Few at 22,000' AGL

Jul-10@
17:00 UTC

Jul-10 @ 17:00 UTC

Jul-11@
03:00 UTC

Jul-11 @ 03:00 UTC

FM101700 13008KT P6SM SCT060

Expired

Wind
  • 130° at 8 KTS
Cloud Levels
  • Scattered at 6,000' AGL

Jul-11@
03:00 UTC

Jul-11 @ 03:00 UTC

Jul-11@
06:00 UTC

Jul-11 @ 06:00 UTC

FM110300 11005KT 6SM -SHRA OVC025

From

From Standard forecast or significant change

Wind
  • 110° at 5 KTS
Conditions
Light Showers, Rain
Cloud Levels
  • Overcast at 2,500' AGL